SLYI weather

Yapacani Airport
Ichilo, Santa Cruz Department, Bolivia

Public forecast

Using degrees Celsius for public forecast. Weather courtesy of forecast.io.

Closest aviation weather report (METAR) to Yapacani Airport

Closest report is Viru Viru International Airport, 64.9 nm (120.2 km) SE. Retrieved 2020/02/25 22:00 UTC (16 minutes ago):

SLVR 252200Z 30009KT 9999 SCT017 BKN070 28/22 Q1007

Closest aviation forecast (TAF) to Yapacani Airport

Closest forecast is Viru Viru International Airport, 64.9 nm (120.2 km) SE. Retrieved 2020/02/25 18:06 UTC (4 hours ago):

TAF SLVR 251600Z 2518/2618 34015G30KT 9999 BKN013 BKN070 TX29/2519Z TN20/2610Z BECMG 2604/2608 VRB02KT 8000 SHRA BKN010 FEW030CB BECMG 2609/2612 18015KT 8000 RA BKN008 BKN013 OVC070